sensor_id;sensor_type;location;lat;lon;timestamp;pressure;altitude;pressure_sealevel;temperature;humidity
6942;BME280;3510;43.200;27.920;2023-02-02T00:01:10;100951.00;;;10.18;43.59
6942;BME280;3510;43.200;27.920;2023-02-02T00:03:37;100960.81;;;10.34;43.50
6942;BME280;3510;43.200;27.920;2023-02-02T00:06:05;100950.25;;;10.67;42.36
6942;BME280;3510;43.200;27.920;2023-02-02T00:08:32;100936.53;;;10.53;43.24
6942;BME280;3510;43.200;27.920;2023-02-02T00:11:00;100935.38;;;10.50;42.80
6942;BME280;3510;43.200;27.920;2023-02-02T00:13:26;100927.09;;;10.61;43.17
6942;BME280;3510;43.200;27.920;2023-02-02T00:15:55;100925.09;;;10.67;42.69
6942;BME280;3510;43.200;27.920;2023-02-02T00:18:21;100930.13;;;10.19;43.48
6942;BME280;3510;43.200;27.920;2023-02-02T00:20:48;100929.53;;;10.22;43.21
6942;BME280;3510;43.200;27.920;2023-02-02T00:23:16;100924.38;;;10.20;43.71
6942;BME280;3510;43.200;27.920;2023-02-02T00:25:43;100925.81;;;10.27;43.89
6942;BME280;3510;43.200;27.920;2023-02-02T00:28:10;100918.41;;;10.09;43.63
6942;BME280;3510;43.200;27.920;2023-02-02T00:30:36;100912.53;;;10.38;43.07
6942;BME280;3510;43.200;27.920;2023-02-02T00:33:05;100912.53;;;10.19;43.27
6942;BME280;3510;43.200;27.920;2023-02-02T00:35:31;100904.13;;;10.18;43.20
6942;BME280;3510;43.200;27.920;2023-02-02T00:37:58;100916.84;;;10.49;42.76
6942;BME280;3510;43.200;27.920;2023-02-02T00:40:25;100913.16;;;10.35;43.25
6942;BME280;3510;43.200;27.920;2023-02-02T00:42:52;100904.66;;;10.25;43.48
6942;BME280;3510;43.200;27.920;2023-02-02T00:45:19;100919.19;;;10.37;43.23
6942;BME280;3510;43.200;27.920;2023-02-02T00:47:45;100922.47;;;10.36;43.19
6942;BME280;3510;43.200;27.920;2023-02-02T00:50:15;100925.81;;;10.46;43.11
6942;BME280;3510;43.200;27.920;2023-02-02T00:52:43;100924.00;;;10.45;42.70
6942;BME280;3510;43.200;27.920;2023-02-02T00:55:11;100924.50;;;10.70;42.73
6942;BME280;3510;43.200;27.920;2023-02-02T00:57:39;100921.59;;;10.36;43.53
6942;BME280;3510;43.200;27.920;2023-02-02T01:00:12;100913.00;;;11.02;41.97
6942;BME280;3510;43.200;27.920;2023-02-02T01:02:40;100911.34;;;11.03;41.85
6942;BME280;3510;43.200;27.920;2023-02-02T01:05:08;100903.41;;;10.98;42.07
6942;BME280;3510;43.200;27.920;2023-02-02T01:07:37;100891.22;;;11.44;41.02
6942;BME280;3510;43.200;27.920;2023-02-02T01:10:06;100883.66;;;11.13;41.40
6942;BME280;3510;43.200;27.920;2023-02-02T01:12:34;100863.00;;;11.37;40.97
6942;BME280;3510;43.200;27.920;2023-02-02T01:15:02;100880.00;;;11.20;41.15
6942;BME280;3510;43.200;27.920;2023-02-02T01:17:30;100892.84;;;11.43;41.41
6942;BME280;3510;43.200;27.920;2023-02-02T01:19:57;100846.63;;;11.12;41.44
6942;BME280;3510;43.200;27.920;2023-02-02T01:22:24;100889.22;;;11.09;41.91
6942;BME280;3510;43.200;27.920;2023-02-02T01:24:53;100889.44;;;11.22;41.90
6942;BME280;3510;43.200;27.920;2023-02-02T01:27:20;100886.28;;;11.04;42.17
6942;BME280;3510;43.200;27.920;2023-02-02T01:29:49;100887.91;;;11.04;42.25
6942;BME280;3510;43.200;27.920;2023-02-02T01:32:16;100884.41;;;11.32;41.51
6942;BME280;3510;43.200;27.920;2023-02-02T01:34:43;100893.84;;;10.94;41.92
6942;BME280;3510;43.200;27.920;2023-02-02T01:37:10;100799.38;;;10.58;42.06
6942;BME280;3510;43.200;27.920;2023-02-02T01:39:37;100895.72;;;10.97;42.21
6942;BME280;3510;43.200;27.920;2023-02-02T01:42:11;100884.16;;;11.50;41.38
6942;BME280;3510;43.200;27.920;2023-02-02T01:45:03;100884.63;;;11.05;41.96
6942;BME280;3510;43.200;27.920;2023-02-02T01:47:33;100866.16;;;10.94;41.96
6942;BME280;3510;43.200;27.920;2023-02-02T01:50:03;100879.09;;;10.88;41.70
6942;BME280;3510;43.200;27.920;2023-02-02T01:52:32;100880.09;;;11.01;41.94
6942;BME280;3510;43.200;27.920;2023-02-02T01:55:03;100875.22;;;11.12;41.36
6942;BME280;3510;43.200;27.920;2023-02-02T01:57:40;100875.97;;;11.32;40.84
6942;BME280;3510;43.200;27.920;2023-02-02T02:00:10;100843.09;;;10.89;41.25
6942;BME280;3510;43.200;27.920;2023-02-02T02:02:39;100870.44;;;11.05;40.95
6942;BME280;3510;43.200;27.920;2023-02-02T02:05:08;100832.25;;;11.01;40.88
6942;BME280;3510;43.200;27.920;2023-02-02T02:07:37;100878.38;;;11.20;40.98
6942;BME280;3510;43.200;27.920;2023-02-02T02:10:07;100855.81;;;10.91;40.96
6942;BME280;3510;43.200;27.920;2023-02-02T02:12:35;100855.66;;;10.89;41.50
6942;BME280;3510;43.200;27.920;2023-02-02T02:15:03;100865.63;;;11.08;41.34
6942;BME280;3510;43.200;27.920;2023-02-02T02:17:59;100870.19;;;11.12;41.72
6942;BME280;3510;43.200;27.920;2023-02-02T02:20:45;100863.25;;;11.10;41.95
6942;BME280;3510;43.200;27.920;2023-02-02T02:27:24;100871.44;;;11.07;42.63
6942;BME280;3510;43.200;27.920;2023-02-02T02:30:34;100880.94;;;10.71;42.93
6942;BME280;3510;43.200;27.920;2023-02-02T02:33:05;100878.03;;;10.66;42.48
6942;BME280;3510;43.200;27.920;2023-02-02T02:35:39;100834.78;;;10.02;43.08
6942;BME280;3510;43.200;27.920;2023-02-02T02:38:14;100822.66;;;10.16;42.72
6942;BME280;3510;43.200;27.920;2023-02-02T02:40:48;100881.31;;;10.07;43.78
6942;BME280;3510;43.200;27.920;2023-02-02T02:43:19;100873.59;;;9.76;44.78
6942;BME280;3510;43.200;27.920;2023-02-02T02:45:47;100824.78;;;9.26;44.95
6942;BME280;3510;43.200;27.920;2023-02-02T02:48:17;100861.28;;;9.98;44.28
6942;BME280;3510;43.200;27.920;2023-02-02T02:50:44;100876.31;;;9.88;44.46
6942;BME280;3510;43.200;27.920;2023-02-02T02:53:14;100798.16;;;9.66;43.71
6942;BME280;3510;43.200;27.920;2023-02-02T02:55:45;100875.22;;;9.94;43.81
6942;BME280;3510;43.200;27.920;2023-02-02T02:58:15;100873.94;;;9.70;44.30
6942;BME280;3510;43.200;27.920;2023-02-02T03:00:45;100876.75;;;10.03;43.55
6942;BME280;3510;43.200;27.920;2023-02-02T03:03:18;100884.78;;;9.99;43.94
6942;BME280;3510;43.200;27.920;2023-02-02T03:05:48;100886.22;;;9.67;44.27
6942;BME280;3510;43.200;27.920;2023-02-02T03:08:19;100893.22;;;9.61;44.48
6942;BME280;3510;43.200;27.920;2023-02-02T03:10:49;100877.09;;;10.16;43.22
6942;BME280;3510;43.200;27.920;2023-02-02T03:13:16;100881.38;;;10.17;43.38
6942;BME280;3510;43.200;27.920;2023-02-02T03:15:44;100850.63;;;9.82;43.44
6942;BME280;3510;43.200;27.920;2023-02-02T03:18:14;100822.94;;;9.53;44.08
6942;BME280;3510;43.200;27.920;2023-02-02T03:20:45;100827.53;;;9.57;43.30
6942;BME280;3510;43.200;27.920;2023-02-02T03:23:12;100873.25;;;9.82;43.57
6942;BME280;3510;43.200;27.920;2023-02-02T03:25:40;100862.81;;;10.25;42.76
6942;BME280;3510;43.200;27.920;2023-02-02T03:28:07;100822.66;;;10.16;42.21
6942;BME280;3510;43.200;27.920;2023-02-02T03:30:34;100861.75;;;10.13;42.69
6942;BME280;3510;43.200;27.920;2023-02-02T03:33:02;100867.72;;;10.63;42.08
6942;BME280;3510;43.200;27.920;2023-02-02T03:35:31;100864.22;;;10.81;41.87
6942;BME280;3510;43.200;27.920;2023-02-02T03:38:04;100876.91;;;10.62;42.02
6942;BME280;3510;43.200;27.920;2023-02-02T03:40:31;100864.63;;;10.76;41.72
6942;BME280;3510;43.200;27.920;2023-02-02T03:42:58;100871.03;;;10.72;41.93
6942;BME280;3510;43.200;27.920;2023-02-02T03:45:25;100867.50;;;10.80;41.57
6942;BME280;3510;43.200;27.920;2023-02-02T03:47:52;100867.94;;;10.46;42.13
6942;BME280;3510;43.200;27.920;2023-02-02T03:50:21;100868.41;;;10.91;41.23
6942;BME280;3510;43.200;27.920;2023-02-02T03:52:49;100865.44;;;11.78;39.88
6942;BME280;3510;43.200;27.920;2023-02-02T03:55:19;100869.56;;;11.35;40.36
6942;BME280;3510;43.200;27.920;2023-02-02T03:57:46;100870.41;;;11.56;40.06
6942;BME280;3510;43.200;27.920;2023-02-02T04:00:13;100866.53;;;11.50;39.83
6942;BME280;3510;43.200;27.920;2023-02-02T04:02:40;100873.06;;;10.97;41.02
6942;BME280;3510;43.200;27.920;2023-02-02T04:05:07;100870.94;;;11.22;40.66
6942;BME280;3510;43.200;27.920;2023-02-02T04:07:34;100872.56;;;11.62;39.84
6942;BME280;3510;43.200;27.920;2023-02-02T04:10:01;100873.47;;;11.42;40.16
6942;BME280;3510;43.200;27.920;2023-02-02T04:12:30;100881.03;;;12.05;39.16
6942;BME280;3510;43.200;27.920;2023-02-02T04:14:56;100887.22;;;12.41;38.58
6942;BME280;3510;43.200;27.920;2023-02-02T04:17:23;100884.94;;;12.01;38.90
6942;BME280;3510;43.200;27.920;2023-02-02T04:19:50;100884.75;;;11.78;39.50
6942;BME280;3510;43.200;27.920;2023-02-02T04:22:22;100886.19;;;11.44;40.13
6942;BME280;3510;43.200;27.920;2023-02-02T04:24:49;100883.44;;;12.03;39.33
6942;BME280;3510;43.200;27.920;2023-02-02T04:27:15;100891.97;;;11.32;40.59
6942;BME280;3510;43.200;27.920;2023-02-02T04:29:43;100896.75;;;11.50;41.12
6942;BME280;3510;43.200;27.920;2023-02-02T04:32:10;100891.56;;;11.69;40.64
6942;BME280;3510;43.200;27.920;2023-02-02T04:34:37;100895.50;;;11.24;41.56
6942;BME280;3510;43.200;27.920;2023-02-02T04:37:03;100898.25;;;10.86;42.05
6942;BME280;3510;43.200;27.920;2023-02-02T04:39:30;100902.66;;;10.50;43.12
6942;BME280;3510;43.200;27.920;2023-02-02T04:41:56;100901.09;;;10.31;43.19
6942;BME280;3510;43.200;27.920;2023-02-02T04:44:23;100899.56;;;10.33;42.53
6942;BME280;3510;43.200;27.920;2023-02-02T04:46:51;100897.97;;;10.44;43.08
6942;BME280;3510;43.200;27.920;2023-02-02T04:49:18;100894.44;;;9.94;43.49
6942;BME280;3510;43.200;27.920;2023-02-02T04:51:46;100893.06;;;9.79;44.62
6942;BME280;3510;43.200;27.920;2023-02-02T04:54:14;100868.59;;;9.57;45.40
6942;BME280;3510;43.200;27.920;2023-02-02T04:56:41;100892.19;;;9.78;45.00
6942;BME280;3510;43.200;27.920;2023-02-02T04:59:07;100891.63;;;9.34;45.95
6942;BME280;3510;43.200;27.920;2023-02-02T05:01:34;100888.19;;;9.99;45.12
6942;BME280;3510;43.200;27.920;2023-02-02T05:04:02;100886.38;;;9.88;44.60
6942;BME280;3510;43.200;27.920;2023-02-02T05:06:29;100895.19;;;9.93;45.28
6942;BME280;3510;43.200;27.920;2023-02-02T05:08:55;100889.16;;;9.91;45.66
6942;BME280;3510;43.200;27.920;2023-02-02T05:11:22;100891.47;;;9.79;45.32
6942;BME280;3510;43.200;27.920;2023-02-02T05:13:49;100897.84;;;9.94;45.31
6942;BME280;3510;43.200;27.920;2023-02-02T05:16:16;100897.72;;;10.41;44.81
6942;BME280;3510;43.200;27.920;2023-02-02T05:18:47;100892.50;;;10.29;44.85
6942;BME280;3510;43.200;27.920;2023-02-02T05:21:15;100904.97;;;9.90;45.17
6942;BME280;3510;43.200;27.920;2023-02-02T05:23:42;100904.97;;;10.57;44.23
6942;BME280;3510;43.200;27.920;2023-02-02T05:26:10;100910.00;;;10.09;45.29
6942;BME280;3510;43.200;27.920;2023-02-02T05:28:37;100914.16;;;10.27;44.98
6942;BME280;3510;43.200;27.920;2023-02-02T05:31:06;100919.50;;;10.03;45.51
6942;BME280;3510;43.200;27.920;2023-02-02T05:33:33;100924.06;;;10.07;45.60
6942;BME280;3510;43.200;27.920;2023-02-02T05:36:01;100926.09;;;10.30;45.67
6942;BME280;3510;43.200;27.920;2023-02-02T05:38:29;100926.22;;;10.12;46.19
6942;BME280;3510;43.200;27.920;2023-02-02T05:40:58;100923.38;;;9.80;46.98
6942;BME280;3510;43.200;27.920;2023-02-02T05:43:25;100929.97;;;9.88;46.78
6942;BME280;3510;43.200;27.920;2023-02-02T05:45:52;100933.41;;;10.18;46.29
6942;BME280;3510;43.200;27.920;2023-02-02T05:48:18;100925.53;;;10.24;46.13
6942;BME280;3510;43.200;27.920;2023-02-02T05:50:46;100927.25;;;9.96;46.30
6942;BME280;3510;43.200;27.920;2023-02-02T05:53:14;100931.78;;;10.18;45.45
6942;BME280;3510;43.200;27.920;2023-02-02T05:55:42;100932.91;;;10.31;45.27
6942;BME280;3510;43.200;27.920;2023-02-02T05:58:09;100932.09;;;10.51;44.87
6942;BME280;3510;43.200;27.920;2023-02-02T06:00:36;100936.25;;;10.60;44.46
6942;BME280;3510;43.200;27.920;2023-02-02T06:03:03;100936.16;;;10.59;44.62
6942;BME280;3510;43.200;27.920;2023-02-02T06:05:30;100943.00;;;10.41;44.70
6942;BME280;3510;43.200;27.920;2023-02-02T06:07:57;100941.84;;;10.66;44.14
6942;BME280;3510;43.200;27.920;2023-02-02T06:10:23;100939.69;;;10.61;44.26
6942;BME280;3510;43.200;27.920;2023-02-02T06:12:51;100941.78;;;10.56;44.52
6942;BME280;3510;43.200;27.920;2023-02-02T06:15:18;100948.78;;;10.69;43.76
6942;BME280;3510;43.200;27.920;2023-02-02T06:17:45;100952.25;;;11.00;43.33
6942;BME280;3510;43.200;27.920;2023-02-02T06:20:12;100953.66;;;11.07;43.40
6942;BME280;3510;43.200;27.920;2023-02-02T06:22:39;100948.16;;;11.42;42.81
6942;BME280;3510;43.200;27.920;2023-02-02T06:25:07;100955.94;;;11.14;43.23
6942;BME280;3510;43.200;27.920;2023-02-02T06:27:35;100942.88;;;11.79;42.13
6942;BME280;3510;43.200;27.920;2023-02-02T06:30:04;100940.97;;;11.97;42.27
6942;BME280;3510;43.200;27.920;2023-02-02T06:32:31;100926.88;;;11.58;42.63
6942;BME280;3510;43.200;27.920;2023-02-02T06:34:58;100960.00;;;11.53;42.82
6942;BME280;3510;43.200;27.920;2023-02-02T06:37:25;100955.72;;;11.31;43.45
6942;BME280;3510;43.200;27.920;2023-02-02T06:39:52;100967.06;;;11.47;43.72
6942;BME280;3510;43.200;27.920;2023-02-02T06:42:19;100972.59;;;11.32;43.06
6942;BME280;3510;43.200;27.920;2023-02-02T06:44:46;100962.38;;;11.41;43.10
6942;BME280;3510;43.200;27.920;2023-02-02T06:47:15;100963.66;;;11.56;43.11
6942;BME280;3510;43.200;27.920;2023-02-02T06:49:43;100935.19;;;11.37;43.11
6942;BME280;3510;43.200;27.920;2023-02-02T06:52:10;100957.72;;;11.56;43.24
6942;BME280;3510;43.200;27.920;2023-02-02T06:54:37;100967.91;;;11.17;43.68
6942;BME280;3510;43.200;27.920;2023-02-02T06:57:04;100942.63;;;11.35;43.46
6942;BME280;3510;43.200;27.920;2023-02-02T06:59:31;100971.56;;;11.30;44.00
6942;BME280;3510;43.200;27.920;2023-02-02T07:01:58;100964.31;;;11.54;43.27
6942;BME280;3510;43.200;27.920;2023-02-02T07:04:27;100974.88;;;11.39;43.88
6942;BME280;3510;43.200;27.920;2023-02-02T07:06:56;100927.50;;;11.35;43.32
6942;BME280;3510;43.200;27.920;2023-02-02T07:09:23;100838.91;;;10.90;43.14
6942;BME280;3510;43.200;27.920;2023-02-02T07:11:50;100978.53;;;12.15;42.03
6942;BME280;3510;43.200;27.920;2023-02-02T07:14:17;100966.31;;;11.58;43.29
6942;BME280;3510;43.200;27.920;2023-02-02T07:16:46;100966.22;;;11.87;42.36
6942;BME280;3510;43.200;27.920;2023-02-02T07:19:13;100986.97;;;11.74;42.58
6942;BME280;3510;43.200;27.920;2023-02-02T07:21:42;100928.97;;;11.23;43.33
6942;BME280;3510;43.200;27.920;2023-02-02T07:24:09;100983.44;;;11.82;42.96
6942;BME280;3510;43.200;27.920;2023-02-02T07:26:36;100917.28;;;11.95;41.58
6942;BME280;3510;43.200;27.920;2023-02-02T07:29:04;100986.81;;;12.66;40.59
6942;BME280;3510;43.200;27.920;2023-02-02T07:31:32;100993.22;;;12.41;41.32
6942;BME280;3510;43.200;27.920;2023-02-02T07:34:00;100941.78;;;12.28;41.36
6942;BME280;3510;43.200;27.920;2023-02-02T07:36:29;101001.28;;;13.01;40.70
6942;BME280;3510;43.200;27.920;2023-02-02T07:38:58;100995.56;;;12.92;41.02
6942;BME280;3510;43.200;27.920;2023-02-02T07:41:39;100962.72;;;13.14;40.41
6942;BME280;3510;43.200;27.920;2023-02-02T07:44:19;100922.66;;;12.96;39.93
6942;BME280;3510;43.200;27.920;2023-02-02T07:46:50;100910.53;;;12.48;40.40
6942;BME280;3510;43.200;27.920;2023-02-02T07:49:18;100887.47;;;12.44;39.98
6942;BME280;3510;43.200;27.920;2023-02-02T07:51:47;100941.41;;;12.56;40.08
6942;BME280;3510;43.200;27.920;2023-02-02T07:54:16;100988.81;;;13.02;40.18
6942;BME280;3510;43.200;27.920;2023-02-02T07:56:44;100955.66;;;12.88;40.07
6942;BME280;3510;43.200;27.920;2023-02-02T07:59:11;100996.78;;;13.19;40.14
6942;BME280;3510;43.200;27.920;2023-02-02T08:01:38;100998.91;;;12.70;40.71
6942;BME280;3510;43.200;27.920;2023-02-02T08:04:05;100946.69;;;13.13;39.09
6942;BME280;3510;43.200;27.920;2023-02-02T08:06:34;100979.88;;;12.96;39.67
6942;BME280;3510;43.200;27.920;2023-02-02T08:09:03;100982.56;;;12.87;39.97
6942;BME280;3510;43.200;27.920;2023-02-02T08:11:35;100960.72;;;12.88;39.95
6942;BME280;3510;43.200;27.920;2023-02-02T08:16:37;100974.09;;;13.08;39.79
6942;BME280;3510;43.200;27.920;2023-02-02T08:19:05;100995.59;;;13.36;39.24
6942;BME280;3510;43.200;27.920;2023-02-02T08:34:40;101000.25;;;13.53;39.24
6942;BME280;3510;43.200;27.920;2023-02-02T08:37:12;100975.13;;;13.32;38.75
6942;BME280;3510;43.200;27.920;2023-02-02T08:44:50;100974.91;;;13.19;39.14
6942;BME280;3510;43.200;27.920;2023-02-02T08:47:19;100940.81;;;13.02;39.46
6942;BME280;3510;43.200;27.920;2023-02-02T08:49:49;100878.31;;;12.56;39.32
6942;BME280;3510;43.200;27.920;2023-02-02T08:52:17;100992.75;;;13.21;39.11
6942;BME280;3510;43.200;27.920;2023-02-02T08:54:44;101000.69;;;13.47;39.24
6942;BME280;3510;43.200;27.920;2023-02-02T08:57:11;100993.28;;;11.69;41.75
6942;BME280;3510;43.200;27.920;2023-02-02T08:59:38;100946.44;;;10.91;43.19
6942;BME280;3510;43.200;27.920;2023-02-02T09:02:07;101019.66;;;11.23;43.17
6942;BME280;3510;43.200;27.920;2023-02-02T09:04:35;101013.16;;;11.35;43.15
6942;BME280;3510;43.200;27.920;2023-02-02T09:07:03;101005.75;;;11.57;42.80
6942;BME280;3510;43.200;27.920;2023-02-02T09:09:31;100953.44;;;11.34;42.87
6942;BME280;3510;43.200;27.920;2023-02-02T09:11:59;100993.91;;;11.97;42.13
6942;BME280;3510;43.200;27.920;2023-02-02T09:14:26;101000.34;;;11.63;42.47
6942;BME280;3510;43.200;27.920;2023-02-02T09:16:54;100977.66;;;11.43;42.99
6942;BME280;3510;43.200;27.920;2023-02-02T09:19:21;101005.13;;;11.50;43.67
6942;BME280;3510;43.200;27.920;2023-02-02T09:21:48;100983.22;;;12.00;42.71
6942;BME280;3510;43.200;27.920;2023-02-02T09:24:17;101008.50;;;12.32;41.83
6942;BME280;3510;43.200;27.920;2023-02-02T09:26:44;101007.16;;;12.15;41.82
6942;BME280;3510;43.200;27.920;2023-02-02T09:29:13;100993.19;;;11.88;42.05
6942;BME280;3510;43.200;27.920;2023-02-02T09:31:42;100954.59;;;11.69;42.68
6942;BME280;3510;43.200;27.920;2023-02-02T09:34:16;100979.69;;;11.98;42.23
6942;BME280;3510;43.200;27.920;2023-02-02T09:36:44;100947.25;;;11.82;42.55
6942;BME280;3510;43.200;27.920;2023-02-02T09:39:13;100966.81;;;11.44;43.33
6942;BME280;3510;43.200;27.920;2023-02-02T09:42:29;100956.50;;;11.92;42.41
6942;BME280;3510;43.200;27.920;2023-02-02T09:45:06;100963.28;;;11.93;42.58
6942;BME280;3510;43.200;27.920;2023-02-02T09:48:22;100951.53;;;12.14;41.95
6942;BME280;3510;43.200;27.920;2023-02-02T09:51:16;100903.78;;;11.95;42.17
6942;BME280;3510;43.200;27.920;2023-02-02T09:54:00;100949.16;;;11.74;42.61
6942;BME280;3510;43.200;27.920;2023-02-02T10:35:28;100871.06;;;15.57;35.19
6942;BME280;3510;43.200;27.920;2023-02-02T10:38:21;100898.06;;;15.05;35.34
6942;BME280;3510;43.200;27.920;2023-02-02T10:43:54;100888.91;;;15.07;35.39
6942;BME280;3510;43.200;27.920;2023-02-02T10:49:27;100904.09;;;14.82;35.55
6942;BME280;3510;43.200;27.920;2023-02-02T10:52:06;100903.44;;;15.73;34.01
6942;BME280;3510;43.200;27.920;2023-02-02T10:54:46;100886.38;;;15.84;33.53
6942;BME280;3510;43.200;27.920;2023-02-02T10:57:23;100834.00;;;15.33;34.09
6942;BME280;3510;43.200;27.920;2023-02-02T11:00:05;100870.16;;;15.68;33.99
6942;BME280;3510;43.200;27.920;2023-02-02T11:02:39;100880.28;;;16.21;33.14
6942;BME280;3510;43.200;27.920;2023-02-02T11:05:12;100829.25;;;16.45;32.57
6942;BME280;3510;43.200;27.920;2023-02-02T11:11:07;100806.72;;;16.36;32.79
6942;BME280;3510;43.200;27.920;2023-02-02T11:13:46;100889.00;;;16.12;33.27
6942;BME280;3510;43.200;27.920;2023-02-02T11:16:25;100875.25;;;15.95;34.18
6942;BME280;3510;43.200;27.920;2023-02-02T11:19:22;100874.09;;;16.44;33.31
6942;BME280;3510;43.200;27.920;2023-02-02T11:22:03;100872.22;;;16.55;33.57
6942;BME280;3510;43.200;27.920;2023-02-02T11:24:39;100867.38;;;17.01;32.44
6942;BME280;3510;43.200;27.920;2023-02-02T11:32:38;100875.00;;;16.32;33.43
6942;BME280;3510;43.200;27.920;2023-02-02T11:35:15;100858.53;;;16.53;32.21
6942;BME280;3510;43.200;27.920;2023-02-02T11:38:08;100831.41;;;16.67;31.97
6942;BME280;3510;43.200;27.920;2023-02-02T11:40:43;100874.47;;;16.09;32.24
6942;BME280;3510;43.200;27.920;2023-02-02T11:45:59;100866.22;;;16.27;32.39
6942;BME280;3510;43.200;27.920;2023-02-02T11:53:46;100837.44;;;16.54;32.77
6942;BME280;3510;43.200;27.920;2023-02-02T11:56:18;100855.91;;;16.10;33.36
6942;BME280;3510;43.200;27.920;2023-02-02T12:03:58;100857.25;;;16.18;32.91
6942;BME280;3510;43.200;27.920;2023-02-02T12:06:33;100827.22;;;15.85;33.08
6942;BME280;3510;43.200;27.920;2023-02-02T12:09:11;100841.22;;;16.19;33.24
6942;BME280;3510;43.200;27.920;2023-02-02T12:11:53;100853.06;;;15.79;33.47
6942;BME280;3510;43.200;27.920;2023-02-02T12:14:37;100842.22;;;16.08;33.29
6942;BME280;3510;43.200;27.920;2023-02-02T12:17:22;100812.59;;;16.35;32.98
6942;BME280;3510;43.200;27.920;2023-02-02T12:20:12;100697.63;;;15.42;33.70
6942;BME280;3510;43.200;27.920;2023-02-02T12:23:27;100785.66;;;15.69;33.46
6942;BME280;3510;43.200;27.920;2023-02-02T12:26:13;100822.91;;;16.10;33.65
6942;BME280;3510;43.200;27.920;2023-02-02T12:31:57;100758.91;;;15.75;33.32
6942;BME280;3510;43.200;27.920;2023-02-02T12:45:24;100809.41;;;16.11;32.59
6942;BME280;3510;43.200;27.920;2023-02-02T12:48:08;100813.06;;;16.43;32.12
6942;BME280;3510;43.200;27.920;2023-02-02T12:56:04;100815.00;;;16.75;32.74
6942;BME280;3510;43.200;27.920;2023-02-02T12:58:41;100822.63;;;15.92;33.63
6942;BME280;3510;43.200;27.920;2023-02-02T13:09:44;100735.44;;;16.20;32.75
6942;BME280;3510;43.200;27.920;2023-02-02T13:12:17;100777.09;;;16.09;33.28
6942;BME280;3510;43.200;27.920;2023-02-02T13:14:48;100807.91;;;16.28;33.25
6942;BME280;3510;43.200;27.920;2023-02-02T13:17:37;100786.44;;;16.94;32.42
6942;BME280;3510;43.200;27.920;2023-02-02T13:20:15;100796.78;;;16.82;32.58
6942;BME280;3510;43.200;27.920;2023-02-02T13:22:44;100797.69;;;16.69;32.79
6942;BME280;3510;43.200;27.920;2023-02-02T13:25:18;100784.69;;;16.78;32.69
6942;BME280;3510;43.200;27.920;2023-02-02T13:27:48;100801.84;;;16.82;32.71
6942;BME280;3510;43.200;27.920;2023-02-02T13:30:25;100773.78;;;16.66;33.23
6942;BME280;3510;43.200;27.920;2023-02-02T13:32:57;100779.59;;;16.22;33.99
6942;BME280;3510;43.200;27.920;2023-02-02T13:35:30;100763.31;;;16.18;34.35
6942;BME280;3510;43.200;27.920;2023-02-02T13:38:03;100791.69;;;16.82;33.61
6942;BME280;3510;43.200;27.920;2023-02-02T13:40:38;100800.00;;;16.52;34.37
6942;BME280;3510;43.200;27.920;2023-02-02T13:43:20;100777.00;;;16.63;33.80
6942;BME280;3510;43.200;27.920;2023-02-02T13:46:05;100788.97;;;16.51;33.67
6942;BME280;3510;43.200;27.920;2023-02-02T13:48:42;100771.91;;;16.63;33.21
6942;BME280;3510;43.200;27.920;2023-02-02T13:51:52;100792.66;;;16.56;33.45
6942;BME280;3510;43.200;27.920;2023-02-02T13:54:54;100783.66;;;16.61;33.04
6942;BME280;3510;43.200;27.920;2023-02-02T14:10:58;100702.00;;;16.55;31.24
6942;BME280;3510;43.200;27.920;2023-02-02T14:13:33;100789.28;;;16.70;31.82
6942;BME280;3510;43.200;27.920;2023-02-02T14:16:41;100782.69;;;17.32;31.24
6942;BME280;3510;43.200;27.920;2023-02-02T14:19:14;100700.91;;;16.80;31.17
6942;BME280;3510;43.200;27.920;2023-02-02T14:24:41;100781.53;;;17.27;31.26
6942;BME280;3510;43.200;27.920;2023-02-02T14:33:36;100771.66;;;17.62;30.52
6942;BME280;3510;43.200;27.920;2023-02-02T14:36:14;100706.25;;;17.45;30.48
6942;BME280;3510;43.200;27.920;2023-02-02T14:41:22;100642.72;;;16.84;30.45
6942;BME280;3510;43.200;27.920;2023-02-02T14:53:20;100806.72;;;16.36;31.28
6942;BME280;3510;43.200;27.920;2023-02-02T15:01:11;100913.03;;;10.73;48.77
6942;BME280;3510;43.200;27.920;2023-02-02T15:06:31;100825.16;;;11.68;49.73
6942;BME280;3510;43.200;27.920;2023-02-02T15:20:57;100954.69;;;10.70;54.19
6942;BME280;3510;43.200;27.920;2023-02-02T15:23:29;100803.84;;;11.02;52.51
6942;BME280;3510;43.200;27.920;2023-02-02T15:26:16;100895.22;;;11.72;51.29
6942;BME280;3510;43.200;27.920;2023-02-02T15:31:37;100903.41;;;11.59;52.40
6942;BME280;3510;43.200;27.920;2023-02-02T15:34:34;100951.56;;;11.93;52.76
6942;BME280;3510;43.200;27.920;2023-02-02T16:15:01;100956.72;;;12.47;52.16
6942;BME280;3510;43.200;27.920;2023-02-02T16:17:30;100969.66;;;12.30;52.93
6942;BME280;3510;43.200;27.920;2023-02-02T16:20:13;100966.22;;;12.40;52.76
6942;BME280;3510;43.200;27.920;2023-02-02T16:22:56;100881.19;;;11.96;52.14
6942;BME280;3510;43.200;27.920;2023-02-02T16:25:45;100895.38;;;12.16;51.92
6942;BME280;3510;43.200;27.920;2023-02-02T16:28:26;100895.44;;;11.96;52.11
6942;BME280;3510;43.200;27.920;2023-02-02T17:03:10;100878.09;;;11.37;50.21
6942;BME280;3510;43.200;27.920;2023-02-02T17:05:46;100862.38;;;11.30;50.44
6942;BME280;3510;43.200;27.920;2023-02-02T17:08:25;100881.66;;;11.50;49.88
6942;BME280;3510;43.200;27.920;2023-02-02T17:11:06;100952.31;;;11.82;50.00
6942;BME280;3510;43.200;27.920;2023-02-02T17:13:45;100945.88;;;11.75;49.50
6942;BME280;3510;43.200;27.920;2023-02-02T17:18:49;100866.13;;;11.66;49.02
6942;BME280;3510;43.200;27.920;2023-02-02T17:21:20;100865.03;;;11.31;49.65
6942;BME280;3510;43.200;27.920;2023-02-02T17:26:23;100955.88;;;11.53;50.12
6942;BME280;3510;43.200;27.920;2023-02-02T17:28:53;100932.16;;;11.61;49.81
6942;BME280;3510;43.200;27.920;2023-02-02T17:31:21;100919.56;;;11.41;50.46
6942;BME280;3510;43.200;27.920;2023-02-02T17:33:51;100950.03;;;11.34;50.91
6942;BME280;3510;43.200;27.920;2023-02-02T17:36:19;100939.84;;;11.32;50.75